sensor_id;sensor_type;location;lat;lon;timestamp;P1;durP1;ratioP1;P2;durP2;ratioP2
3131;SDS011;62090;52.330;9.104;2024-03-06T00:00:56;20.13;;;11.83;;
3131;SDS011;62090;52.330;9.104;2024-03-06T00:03:26;15.43;;;10.73;;
3131;SDS011;62090;52.330;9.104;2024-03-06T00:05:56;16.53;;;11.37;;
3131;SDS011;62090;52.330;9.104;2024-03-06T00:08:28;27.70;;;12.33;;
3131;SDS011;62090;52.330;9.104;2024-03-06T00:10:58;19.67;;;12.37;;
3131;SDS011;62090;52.330;9.104;2024-03-06T00:13:28;17.83;;;11.73;;
3131;SDS011;62090;52.330;9.104;2024-03-06T00:15:59;22.57;;;12.53;;
3131;SDS011;62090;52.330;9.104;2024-03-06T00:18:29;18.17;;;11.20;;
3131;SDS011;62090;52.330;9.104;2024-03-06T00:20:59;21.77;;;11.80;;
3131;SDS011;62090;52.330;9.104;2024-03-06T00:23:31;21.70;;;12.70;;
3131;SDS011;62090;52.330;9.104;2024-03-06T00:26:02;21.90;;;12.30;;
3131;SDS011;62090;52.330;9.104;2024-03-06T00:28:32;21.73;;;11.53;;
3131;SDS011;62090;52.330;9.104;2024-03-06T00:31:03;17.03;;;11.77;;
3131;SDS011;62090;52.330;9.104;2024-03-06T00:33:34;21.47;;;10.97;;
3131;SDS011;62090;52.330;9.104;2024-03-06T00:36:05;22.77;;;10.77;;
3131;SDS011;62090;52.330;9.104;2024-03-06T00:38:38;23.00;;;12.23;;
3131;SDS011;62090;52.330;9.104;2024-03-06T00:41:08;19.00;;;12.63;;
3131;SDS011;62090;52.330;9.104;2024-03-06T00:43:38;28.77;;;12.47;;
3131;SDS011;62090;52.330;9.104;2024-03-06T00:46:08;19.90;;;11.73;;
3131;SDS011;62090;52.330;9.104;2024-03-06T00:48:39;29.97;;;12.20;;
3131;SDS011;62090;52.330;9.104;2024-03-06T00:51:08;17.47;;;10.40;;
3131;SDS011;62090;52.330;9.104;2024-03-06T00:53:41;22.43;;;12.80;;
3131;SDS011;62090;52.330;9.104;2024-03-06T00:56:11;16.40;;;11.10;;
3131;SDS011;62090;52.330;9.104;2024-03-06T00:58:41;27.33;;;14.50;;
3131;SDS011;62090;52.330;9.104;2024-03-06T01:01:11;20.37;;;13.07;;
3131;SDS011;62090;52.330;9.104;2024-03-06T01:03:42;28.43;;;12.70;;
3131;SDS011;62090;52.330;9.104;2024-03-06T01:06:12;25.70;;;14.23;;
3131;SDS011;62090;52.330;9.104;2024-03-06T01:08:44;23.77;;;12.67;;
3131;SDS011;62090;52.330;9.104;2024-03-06T01:11:14;21.33;;;12.60;;
3131;SDS011;62090;52.330;9.104;2024-03-06T01:13:45;27.37;;;13.20;;
3131;SDS011;62090;52.330;9.104;2024-03-06T01:16:15;21.40;;;13.20;;
3131;SDS011;62090;52.330;9.104;2024-03-06T01:18:45;21.90;;;12.90;;
3131;SDS011;62090;52.330;9.104;2024-03-06T01:21:15;17.73;;;10.50;;
3131;SDS011;62090;52.330;9.104;2024-03-06T01:23:48;19.87;;;13.20;;
3131;SDS011;62090;52.330;9.104;2024-03-06T01:26:18;20.70;;;13.57;;
3131;SDS011;62090;52.330;9.104;2024-03-06T01:28:48;21.47;;;11.70;;
3131;SDS011;62090;52.330;9.104;2024-03-06T01:31:18;29.23;;;12.13;;
3131;SDS011;62090;52.330;9.104;2024-03-06T01:33:48;27.30;;;13.80;;
3131;SDS011;62090;52.330;9.104;2024-03-06T01:36:18;26.73;;;13.77;;
3131;SDS011;62090;52.330;9.104;2024-03-06T01:38:51;24.10;;;14.20;;
3131;SDS011;62090;52.330;9.104;2024-03-06T01:41:21;26.97;;;12.60;;
3131;SDS011;62090;52.330;9.104;2024-03-06T01:43:51;24.47;;;12.33;;
3131;SDS011;62090;52.330;9.104;2024-03-06T01:46:21;20.33;;;13.03;;
3131;SDS011;62090;52.330;9.104;2024-03-06T01:48:51;25.33;;;13.53;;
3131;SDS011;62090;52.330;9.104;2024-03-06T01:51:21;28.77;;;15.30;;
3131;SDS011;62090;52.330;9.104;2024-03-06T01:53:54;25.93;;;15.13;;
3131;SDS011;62090;52.330;9.104;2024-03-06T01:56:25;19.87;;;12.43;;
3131;SDS011;62090;52.330;9.104;2024-03-06T01:58:55;21.90;;;13.57;;
3131;SDS011;62090;52.330;9.104;2024-03-06T02:01:25;23.53;;;15.30;;
3131;SDS011;62090;52.330;9.104;2024-03-06T02:03:55;24.23;;;15.77;;
3131;SDS011;62090;52.330;9.104;2024-03-06T02:06:26;27.37;;;14.70;;
3131;SDS011;62090;52.330;9.104;2024-03-06T02:08:58;28.50;;;14.03;;
3131;SDS011;62090;52.330;9.104;2024-03-06T02:11:30;19.80;;;13.17;;
3131;SDS011;62090;52.330;9.104;2024-03-06T02:14:00;28.23;;;16.67;;
3131;SDS011;62090;52.330;9.104;2024-03-06T02:16:30;30.77;;;17.00;;
3131;SDS011;62090;52.330;9.104;2024-03-06T02:19:00;27.20;;;17.50;;
3131;SDS011;62090;52.330;9.104;2024-03-06T02:21:33;24.13;;;16.63;;
3131;SDS011;62090;52.330;9.104;2024-03-06T02:24:03;24.87;;;13.53;;
3131;SDS011;62090;52.330;9.104;2024-03-06T02:26:35;35.00;;;15.47;;
3131;SDS011;62090;52.330;9.104;2024-03-06T02:29:05;26.00;;;15.60;;
3131;SDS011;62090;52.330;9.104;2024-03-06T02:31:36;29.67;;;15.27;;
3131;SDS011;62090;52.330;9.104;2024-03-06T02:34:06;25.33;;;15.33;;
3131;SDS011;62090;52.330;9.104;2024-03-06T02:36:39;23.83;;;15.20;;
3131;SDS011;62090;52.330;9.104;2024-03-06T02:39:09;26.37;;;15.23;;
3131;SDS011;62090;52.330;9.104;2024-03-06T02:41:39;34.33;;;14.20;;
3131;SDS011;62090;52.330;9.104;2024-03-06T02:44:09;29.27;;;15.83;;
3131;SDS011;62090;52.330;9.104;2024-03-06T02:46:40;28.43;;;15.57;;
3131;SDS011;62090;52.330;9.104;2024-03-06T02:49:10;26.80;;;15.90;;
3131;SDS011;62090;52.330;9.104;2024-03-06T02:51:43;38.50;;;15.50;;
3131;SDS011;62090;52.330;9.104;2024-03-06T02:54:13;28.13;;;17.97;;
3131;SDS011;62090;52.330;9.104;2024-03-06T02:56:43;27.80;;;16.80;;
3131;SDS011;62090;52.330;9.104;2024-03-06T02:59:13;36.40;;;19.10;;
3131;SDS011;62090;52.330;9.104;2024-03-06T03:01:43;30.97;;;18.13;;
3131;SDS011;62090;52.330;9.104;2024-03-06T03:04:13;31.70;;;18.10;;
3131;SDS011;62090;52.330;9.104;2024-03-06T03:06:46;38.17;;;19.90;;
3131;SDS011;62090;52.330;9.104;2024-03-06T03:09:16;28.90;;;17.57;;
3131;SDS011;62090;52.330;9.104;2024-03-06T03:11:47;39.40;;;17.30;;
3131;SDS011;62090;52.330;9.104;2024-03-06T03:14:17;35.47;;;20.50;;
3131;SDS011;62090;52.330;9.104;2024-03-06T03:16:47;41.50;;;18.53;;
3131;SDS011;62090;52.330;9.104;2024-03-06T03:19:17;34.83;;;21.87;;
3131;SDS011;62090;52.330;9.104;2024-03-06T03:21:50;36.60;;;21.57;;
3131;SDS011;62090;52.330;9.104;2024-03-06T03:24:20;32.03;;;16.73;;
3131;SDS011;62090;52.330;9.104;2024-03-06T03:26:52;35.43;;;17.67;;
3131;SDS011;62090;52.330;9.104;2024-03-06T03:29:22;39.23;;;18.77;;
3131;SDS011;62090;52.330;9.104;2024-03-06T03:31:52;34.53;;;21.60;;
3131;SDS011;62090;52.330;9.104;2024-03-06T03:34:22;35.60;;;17.63;;
3131;SDS011;62090;52.330;9.104;2024-03-06T03:36:55;43.73;;;21.27;;
3131;SDS011;62090;52.330;9.104;2024-03-06T03:39:25;36.00;;;19.80;;
3131;SDS011;62090;52.330;9.104;2024-03-06T03:41:55;34.00;;;18.40;;
3131;SDS011;62090;52.330;9.104;2024-03-06T03:44:25;33.13;;;22.60;;
3131;SDS011;62090;52.330;9.104;2024-03-06T03:46:55;30.40;;;21.73;;
3131;SDS011;62090;52.330;9.104;2024-03-06T03:49:25;33.70;;;17.30;;
3131;SDS011;62090;52.330;9.104;2024-03-06T03:51:58;39.40;;;21.97;;
3131;SDS011;62090;52.330;9.104;2024-03-06T03:54:28;34.57;;;23.43;;
3131;SDS011;62090;52.330;9.104;2024-03-06T03:56:58;31.13;;;18.10;;
3131;SDS011;62090;52.330;9.104;2024-03-06T03:59:28;39.80;;;20.40;;
3131;SDS011;62090;52.330;9.104;2024-03-06T04:01:58;35.27;;;19.83;;
3131;SDS011;62090;52.330;9.104;2024-03-06T04:04:28;35.37;;;19.70;;
3131;SDS011;62090;52.330;9.104;2024-03-06T04:07:03;33.60;;;19.57;;
3131;SDS011;62090;52.330;9.104;2024-03-06T04:09:33;35.43;;;19.40;;
3131;SDS011;62090;52.330;9.104;2024-03-06T04:12:06;34.93;;;20.40;;
3131;SDS011;62090;52.330;9.104;2024-03-06T04:14:36;40.30;;;23.30;;
3131;SDS011;62090;52.330;9.104;2024-03-06T04:17:06;39.50;;;21.30;;
3131;SDS011;62090;52.330;9.104;2024-03-06T04:19:36;41.10;;;22.10;;
3131;SDS011;62090;52.330;9.104;2024-03-06T04:22:09;38.23;;;19.50;;
3131;SDS011;62090;52.330;9.104;2024-03-06T04:24:40;36.43;;;19.50;;
3131;SDS011;62090;52.330;9.104;2024-03-06T04:27:11;36.47;;;21.73;;
3131;SDS011;62090;52.330;9.104;2024-03-06T04:29:43;45.30;;;22.50;;
3131;SDS011;62090;52.330;9.104;2024-03-06T04:32:13;39.50;;;20.37;;
3131;SDS011;62090;52.330;9.104;2024-03-06T04:34:43;40.67;;;24.33;;
3131;SDS011;62090;52.330;9.104;2024-03-06T04:37:16;38.50;;;20.60;;
3131;SDS011;62090;52.330;9.104;2024-03-06T04:39:46;44.00;;;19.70;;
3131;SDS011;62090;52.330;9.104;2024-03-06T04:42:16;36.87;;;19.57;;
3131;SDS011;62090;52.330;9.104;2024-03-06T04:44:46;30.37;;;18.80;;
3131;SDS011;62090;52.330;9.104;2024-03-06T04:47:16;37.30;;;20.07;;
3131;SDS011;62090;52.330;9.104;2024-03-06T04:49:46;36.53;;;22.43;;
3131;SDS011;62090;52.330;9.104;2024-03-06T04:52:19;40.50;;;22.40;;
3131;SDS011;62090;52.330;9.104;2024-03-06T04:54:49;42.77;;;21.97;;
3131;SDS011;62090;52.330;9.104;2024-03-06T04:57:19;39.80;;;23.60;;
3131;SDS011;62090;52.330;9.104;2024-03-06T04:59:49;40.77;;;23.10;;
3131;SDS011;62090;52.330;9.104;2024-03-06T05:02:19;34.53;;;17.27;;
3131;SDS011;62090;52.330;9.104;2024-03-06T05:04:49;36.70;;;20.10;;
3131;SDS011;62090;52.330;9.104;2024-03-06T05:07:36;35.33;;;20.40;;
3131;SDS011;62090;52.330;9.104;2024-03-06T05:10:20;40.37;;;23.63;;
3131;SDS011;62090;52.330;9.104;2024-03-06T05:13:04;34.57;;;17.80;;
3131;SDS011;62090;52.330;9.104;2024-03-06T05:15:49;39.17;;;23.00;;
3131;SDS011;62090;52.330;9.104;2024-03-06T05:18:34;41.27;;;23.17;;
3131;SDS011;62090;52.330;9.104;2024-03-06T05:21:19;42.93;;;19.40;;
3131;SDS011;62090;52.330;9.104;2024-03-06T05:24:06;40.10;;;19.37;;
3131;SDS011;62090;52.330;9.104;2024-03-06T05:26:50;37.80;;;20.50;;
3131;SDS011;62090;52.330;9.104;2024-03-06T05:29:34;35.30;;;19.67;;
3131;SDS011;62090;52.330;9.104;2024-03-06T05:32:18;33.60;;;21.87;;
3131;SDS011;62090;52.330;9.104;2024-03-06T05:35:02;37.13;;;23.63;;
3131;SDS011;62090;52.330;9.104;2024-03-06T05:37:47;39.13;;;19.50;;
3131;SDS011;62090;52.330;9.104;2024-03-06T05:40:33;36.00;;;20.40;;
3131;SDS011;62090;52.330;9.104;2024-03-06T05:43:20;37.73;;;19.40;;
3131;SDS011;62090;52.330;9.104;2024-03-06T05:46:04;47.27;;;22.33;;
3131;SDS011;62090;52.330;9.104;2024-03-06T05:48:47;41.27;;;21.03;;
3131;SDS011;62090;52.330;9.104;2024-03-06T05:51:31;37.53;;;19.63;;
3131;SDS011;62090;52.330;9.104;2024-03-06T05:54:15;39.53;;;22.70;;
3131;SDS011;62090;52.330;9.104;2024-03-06T05:57:02;39.07;;;21.10;;
3131;SDS011;62090;52.330;9.104;2024-03-06T05:59:46;40.90;;;24.90;;
3131;SDS011;62090;52.330;9.104;2024-03-06T06:02:16;41.17;;;22.23;;
3131;SDS011;62090;52.330;9.104;2024-03-06T06:04:47;43.57;;;25.13;;
3131;SDS011;62090;52.330;9.104;2024-03-06T06:07:37;34.47;;;19.87;;
3131;SDS011;62090;52.330;9.104;2024-03-06T06:10:07;38.33;;;20.40;;
3131;SDS011;62090;52.330;9.104;2024-03-06T06:12:40;38.83;;;20.20;;
3131;SDS011;62090;52.330;9.104;2024-03-06T06:15:10;33.70;;;22.90;;
3131;SDS011;62090;52.330;9.104;2024-03-06T06:17:42;37.83;;;19.87;;
3131;SDS011;62090;52.330;9.104;2024-03-06T06:20:13;34.47;;;20.70;;
3131;SDS011;62090;52.330;9.104;2024-03-06T06:22:45;41.83;;;20.20;;
3131;SDS011;62090;52.330;9.104;2024-03-06T06:25:15;34.40;;;19.20;;
3131;SDS011;62090;52.330;9.104;2024-03-06T06:27:48;32.17;;;21.37;;
3131;SDS011;62090;52.330;9.104;2024-03-06T06:30:18;33.07;;;19.10;;
3131;SDS011;62090;52.330;9.104;2024-03-06T06:32:48;34.50;;;21.03;;
3131;SDS011;62090;52.330;9.104;2024-03-06T06:35:19;38.93;;;19.97;;
3131;SDS011;62090;52.330;9.104;2024-03-06T06:37:49;39.90;;;19.40;;
3131;SDS011;62090;52.330;9.104;2024-03-06T06:40:19;38.50;;;19.97;;
3131;SDS011;62090;52.330;9.104;2024-03-06T06:42:52;38.30;;;19.50;;
3131;SDS011;62090;52.330;9.104;2024-03-06T06:45:22;36.20;;;20.13;;
3131;SDS011;62090;52.330;9.104;2024-03-06T06:47:53;35.77;;;20.60;;
3131;SDS011;62090;52.330;9.104;2024-03-06T06:50:23;38.50;;;21.33;;
3131;SDS011;62090;52.330;9.104;2024-03-06T06:52:54;32.97;;;22.80;;
3131;SDS011;62090;52.330;9.104;2024-03-06T06:55:26;36.87;;;19.67;;
3131;SDS011;62090;52.330;9.104;2024-03-06T06:57:58;41.30;;;21.27;;
3131;SDS011;62090;52.330;9.104;2024-03-06T07:00:29;37.47;;;22.67;;
3131;SDS011;62090;52.330;9.104;2024-03-06T07:03:00;34.10;;;22.70;;
3131;SDS011;62090;52.330;9.104;2024-03-06T07:05:30;36.57;;;19.53;;
3131;SDS011;62090;52.330;9.104;2024-03-06T07:08:00;46.00;;;20.63;;
3131;SDS011;62090;52.330;9.104;2024-03-06T07:10:30;36.40;;;19.80;;
3131;SDS011;62090;52.330;9.104;2024-03-06T07:13:05;36.83;;;20.13;;
3131;SDS011;62090;52.330;9.104;2024-03-06T07:15:35;38.73;;;23.03;;
3131;SDS011;62090;52.330;9.104;2024-03-06T07:18:05;42.80;;;25.97;;
3131;SDS011;62090;52.330;9.104;2024-03-06T07:20:54;33.93;;;18.60;;
3131;SDS011;62090;52.330;9.104;2024-03-06T07:23:24;35.40;;;18.50;;
3131;SDS011;62090;52.330;9.104;2024-03-06T07:25:54;34.50;;;18.93;;
3131;SDS011;62090;52.330;9.104;2024-03-06T07:28:28;33.87;;;19.60;;
3131;SDS011;62090;52.330;9.104;2024-03-06T07:30:59;33.30;;;21.63;;
3131;SDS011;62090;52.330;9.104;2024-03-06T07:33:47;31.50;;;18.40;;
3131;SDS011;62090;52.330;9.104;2024-03-06T07:36:18;48.00;;;21.47;;
3131;SDS011;62090;52.330;9.104;2024-03-06T07:38:48;33.43;;;19.30;;
3131;SDS011;62090;52.330;9.104;2024-03-06T07:41:18;37.13;;;22.30;;
3131;SDS011;62090;52.330;9.104;2024-03-06T07:43:51;35.20;;;22.77;;
3131;SDS011;62090;52.330;9.104;2024-03-06T07:46:21;34.90;;;22.90;;
3131;SDS011;62090;52.330;9.104;2024-03-06T07:48:52;41.43;;;18.73;;
3131;SDS011;62090;52.330;9.104;2024-03-06T07:51:22;36.80;;;19.60;;
3131;SDS011;62090;52.330;9.104;2024-03-06T07:53:52;43.30;;;20.20;;
3131;SDS011;62090;52.330;9.104;2024-03-06T07:56:23;35.27;;;20.53;;
3131;SDS011;62090;52.330;9.104;2024-03-06T07:58:56;38.93;;;19.77;;
3131;SDS011;62090;52.330;9.104;2024-03-06T08:01:26;34.33;;;19.83;;
3131;SDS011;62090;52.330;9.104;2024-03-06T08:03:58;37.67;;;21.97;;
3131;SDS011;62090;52.330;9.104;2024-03-06T08:06:29;37.87;;;20.87;;
3131;SDS011;62090;52.330;9.104;2024-03-06T08:09:00;37.10;;;20.53;;
3131;SDS011;62090;52.330;9.104;2024-03-06T08:11:30;37.83;;;21.20;;
3131;SDS011;62090;52.330;9.104;2024-03-06T08:14:03;41.73;;;20.53;;
3131;SDS011;62090;52.330;9.104;2024-03-06T08:16:33;33.80;;;18.80;;
3131;SDS011;62090;52.330;9.104;2024-03-06T08:19:04;44.60;;;21.90;;
3131;SDS011;62090;52.330;9.104;2024-03-06T08:21:34;34.83;;;20.97;;
3131;SDS011;62090;52.330;9.104;2024-03-06T08:24:05;36.03;;;21.23;;
3131;SDS011;62090;52.330;9.104;2024-03-06T08:26:35;36.53;;;20.83;;
3131;SDS011;62090;52.330;9.104;2024-03-06T08:29:07;48.20;;;23.30;;
3131;SDS011;62090;52.330;9.104;2024-03-06T08:31:38;37.60;;;22.20;;
3131;SDS011;62090;52.330;9.104;2024-03-06T08:34:08;38.73;;;22.00;;
3131;SDS011;62090;52.330;9.104;2024-03-06T08:36:38;31.57;;;21.00;;
3131;SDS011;62090;52.330;9.104;2024-03-06T08:39:08;36.73;;;21.17;;
3131;SDS011;62090;52.330;9.104;2024-03-06T08:41:42;31.40;;;20.87;;
3131;SDS011;62090;52.330;9.104;2024-03-06T08:44:14;29.07;;;19.33;;
3131;SDS011;62090;52.330;9.104;2024-03-06T08:46:44;37.23;;;21.23;;
3131;SDS011;62090;52.330;9.104;2024-03-06T08:49:15;36.90;;;21.43;;
3131;SDS011;62090;52.330;9.104;2024-03-06T08:51:45;35.07;;;19.60;;
3131;SDS011;62090;52.330;9.104;2024-03-06T08:54:15;42.33;;;19.87;;
3131;SDS011;62090;52.330;9.104;2024-03-06T08:56:45;33.47;;;20.17;;
3131;SDS011;62090;52.330;9.104;2024-03-06T08:59:18;36.87;;;21.00;;
3131;SDS011;62090;52.330;9.104;2024-03-06T09:01:48;38.60;;;19.37;;
3131;SDS011;62090;52.330;9.104;2024-03-06T09:04:18;39.73;;;22.27;;
3131;SDS011;62090;52.330;9.104;2024-03-06T09:06:48;35.27;;;20.60;;
3131;SDS011;62090;52.330;9.104;2024-03-06T09:09:18;36.50;;;21.37;;
3131;SDS011;62090;52.330;9.104;2024-03-06T09:11:48;46.40;;;23.90;;
3131;SDS011;62090;52.330;9.104;2024-03-06T09:14:21;33.93;;;20.77;;
3131;SDS011;62090;52.330;9.104;2024-03-06T09:16:51;36.17;;;20.97;;
3131;SDS011;62090;52.330;9.104;2024-03-06T09:19:21;33.47;;;18.23;;
3131;SDS011;62090;52.330;9.104;2024-03-06T09:21:51;37.73;;;21.27;;
3131;SDS011;62090;52.330;9.104;2024-03-06T09:24:21;33.90;;;22.70;;
3131;SDS011;62090;52.330;9.104;2024-03-06T09:26:53;36.03;;;22.20;;
3131;SDS011;62090;52.330;9.104;2024-03-06T09:29:27;37.73;;;20.40;;
3131;SDS011;62090;52.330;9.104;2024-03-06T09:31:57;32.50;;;19.80;;
3131;SDS011;62090;52.330;9.104;2024-03-06T09:34:27;33.60;;;19.83;;
3131;SDS011;62090;52.330;9.104;2024-03-06T09:36:57;35.30;;;19.83;;
3131;SDS011;62090;52.330;9.104;2024-03-06T09:39:27;32.00;;;18.93;;
3131;SDS011;62090;52.330;9.104;2024-03-06T09:41:57;52.13;;;22.33;;
3131;SDS011;62090;52.330;9.104;2024-03-06T09:44:32;35.37;;;20.80;;
3131;SDS011;62090;52.330;9.104;2024-03-06T09:47:03;36.80;;;22.40;;
3131;SDS011;62090;52.330;9.104;2024-03-06T09:49:36;40.90;;;21.00;;
3131;SDS011;62090;52.330;9.104;2024-03-06T09:52:06;36.20;;;19.83;;
3131;SDS011;62090;52.330;9.104;2024-03-06T09:54:37;33.87;;;19.17;;
3131;SDS011;62090;52.330;9.104;2024-03-06T09:57:08;33.70;;;20.00;;
3131;SDS011;62090;52.330;9.104;2024-03-06T09:59:42;36.60;;;20.60;;
3131;SDS011;62090;52.330;9.104;2024-03-06T10:02:17;39.87;;;21.93;;
3131;SDS011;62090;52.330;9.104;2024-03-06T10:04:56;32.43;;;18.57;;
3131;SDS011;62090;52.330;9.104;2024-03-06T10:07:26;42.07;;;20.57;;
3131;SDS011;62090;52.330;9.104;2024-03-06T10:09:56;31.53;;;21.80;;
3131;SDS011;62090;52.330;9.104;2024-03-06T10:12:27;33.03;;;19.00;;
3131;SDS011;62090;52.330;9.104;2024-03-06T10:15:01;37.53;;;20.17;;
3131;SDS011;62090;52.330;9.104;2024-03-06T10:17:31;39.13;;;21.07;;
3131;SDS011;62090;52.330;9.104;2024-03-06T10:20:01;34.33;;;20.00;;
3131;SDS011;62090;52.330;9.104;2024-03-06T10:22:50;35.37;;;20.83;;
3131;SDS011;62090;52.330;9.104;2024-03-06T10:25:25;35.60;;;19.77;;
3131;SDS011;62090;52.330;9.104;2024-03-06T10:28:05;41.93;;;19.70;;
3131;SDS011;62090;52.330;9.104;2024-03-06T10:30:39;33.43;;;18.87;;
3131;SDS011;62090;52.330;9.104;2024-03-06T10:33:11;35.20;;;21.17;;
3131;SDS011;62090;52.330;9.104;2024-03-06T10:35:42;35.07;;;21.00;;
3131;SDS011;62090;52.330;9.104;2024-03-06T10:38:15;36.20;;;21.73;;
3131;SDS011;62090;52.330;9.104;2024-03-06T10:40:45;32.27;;;20.73;;
3131;SDS011;62090;52.330;9.104;2024-03-06T10:43:15;38.87;;;21.30;;
3131;SDS011;62090;52.330;9.104;2024-03-06T10:45:49;34.50;;;19.80;;
3131;SDS011;62090;52.330;9.104;2024-03-06T10:48:20;39.40;;;22.37;;
3131;SDS011;62090;52.330;9.104;2024-03-06T10:50:51;34.53;;;19.73;;
3131;SDS011;62090;52.330;9.104;2024-03-06T10:53:21;42.53;;;20.87;;
3131;SDS011;62090;52.330;9.104;2024-03-06T10:55:56;33.40;;;19.90;;
3131;SDS011;62090;52.330;9.104;2024-03-06T10:58:27;33.23;;;20.10;;
3131;SDS011;62090;52.330;9.104;2024-03-06T11:01:02;43.40;;;20.00;;
3131;SDS011;62090;52.330;9.104;2024-03-06T11:03:33;34.80;;;21.03;;
3131;SDS011;62090;52.330;9.104;2024-03-06T11:06:04;30.83;;;19.00;;
3131;SDS011;62090;52.330;9.104;2024-03-06T11:08:35;32.20;;;19.83;;
3131;SDS011;62090;52.330;9.104;2024-03-06T11:13:54;32.90;;;19.50;;
3131;SDS011;62090;52.330;9.104;2024-03-06T11:16:31;33.40;;;19.70;;
3131;SDS011;62090;52.330;9.104;2024-03-06T11:19:05;31.23;;;20.00;;
3131;SDS011;62090;52.330;9.104;2024-03-06T11:21:45;39.07;;;21.63;;
3131;SDS011;62090;52.330;9.104;2024-03-06T11:24:17;30.97;;;19.77;;
3131;SDS011;62090;52.330;9.104;2024-03-06T11:26:49;34.57;;;20.43;;
3131;SDS011;62090;52.330;9.104;2024-03-06T11:29:26;34.63;;;20.20;;
3131;SDS011;62090;52.330;9.104;2024-03-06T11:32:05;35.70;;;20.27;;
3131;SDS011;62090;52.330;9.104;2024-03-06T11:34:37;31.67;;;19.77;;
3131;SDS011;62090;52.330;9.104;2024-03-06T11:37:07;42.23;;;23.27;;
3131;SDS011;62090;52.330;9.104;2024-03-06T11:39:39;35.13;;;19.70;;
3131;SDS011;62090;52.330;9.104;2024-03-06T11:42:11;37.00;;;21.07;;
3131;SDS011;62090;52.330;9.104;2024-03-06T11:44:53;31.13;;;19.33;;
3131;SDS011;62090;52.330;9.104;2024-03-06T11:47:28;37.70;;;19.97;;
3131;SDS011;62090;52.330;9.104;2024-03-06T11:49:59;37.57;;;20.63;;
3131;SDS011;62090;52.330;9.104;2024-03-06T11:52:29;34.77;;;19.23;;
3131;SDS011;62090;52.330;9.104;2024-03-06T11:54:59;32.03;;;21.47;;
3131;SDS011;62090;52.330;9.104;2024-03-06T11:57:29;34.83;;;19.17;;
3131;SDS011;62090;52.330;9.104;2024-03-06T12:00:02;42.27;;;20.50;;
3131;SDS011;62090;52.330;9.104;2024-03-06T12:02:38;40.73;;;19.40;;
3131;SDS011;62090;52.330;9.104;2024-03-06T12:05:09;31.33;;;20.40;;
3131;SDS011;62090;52.330;9.104;2024-03-06T12:07:46;43.43;;;21.30;;
3131;SDS011;62090;52.330;9.104;2024-03-06T12:10:16;37.50;;;21.10;;
3131;SDS011;62090;52.330;9.104;2024-03-06T12:12:47;34.07;;;21.43;;
3131;SDS011;62090;52.330;9.104;2024-03-06T12:15:17;31.00;;;19.33;;
3131;SDS011;62090;52.330;9.104;2024-03-06T12:17:50;35.63;;;20.33;;
3131;SDS011;62090;52.330;9.104;2024-03-06T12:20:23;36.00;;;20.90;;
3131;SDS011;62090;52.330;9.104;2024-03-06T12:22:54;39.00;;;21.10;;
3131;SDS011;62090;52.330;9.104;2024-03-06T12:25:26;40.53;;;20.57;;
3131;SDS011;62090;52.330;9.104;2024-03-06T12:28:05;33.20;;;20.57;;
3131;SDS011;62090;52.330;9.104;2024-03-06T12:30:40;39.50;;;21.80;;
3131;SDS011;62090;52.330;9.104;2024-03-06T12:33:15;33.37;;;19.90;;
3131;SDS011;62090;52.330;9.104;2024-03-06T12:35:47;33.07;;;20.30;;
3131;SDS011;62090;52.330;9.104;2024-03-06T12:38:17;31.67;;;19.77;;
3131;SDS011;62090;52.330;9.104;2024-03-06T12:40:47;36.80;;;19.10;;
3131;SDS011;62090;52.330;9.104;2024-03-06T12:43:18;38.03;;;21.60;;
3131;SDS011;62090;52.330;9.104;2024-03-06T12:45:48;38.80;;;22.73;;
3131;SDS011;62090;52.330;9.104;2024-03-06T12:48:23;33.63;;;20.57;;
3131;SDS011;62090;52.330;9.104;2024-03-06T12:50:56;41.70;;;20.37;;
3131;SDS011;62090;52.330;9.104;2024-03-06T12:53:32;43.90;;;20.40;;
3131;SDS011;62090;52.330;9.104;2024-03-06T12:56:02;32.80;;;20.77;;
3131;SDS011;62090;52.330;9.104;2024-03-06T12:58:34;34.13;;;19.50;;
3131;SDS011;62090;52.330;9.104;2024-03-06T13:01:04;32.60;;;20.83;;
3131;SDS011;62090;52.330;9.104;2024-03-06T13:03:37;38.60;;;20.37;;
3131;SDS011;62090;52.330;9.104;2024-03-06T13:06:07;41.47;;;19.40;;
3131;SDS011;62090;52.330;9.104;2024-03-06T13:08:37;32.70;;;19.67;;
3131;SDS011;62090;52.330;9.104;2024-03-06T13:11:07;37.13;;;19.57;;
3131;SDS011;62090;52.330;9.104;2024-03-06T13:13:39;39.37;;;19.87;;
3131;SDS011;62090;52.330;9.104;2024-03-06T13:16:09;40.97;;;20.30;;
3131;SDS011;62090;52.330;9.104;2024-03-06T13:18:42;36.80;;;22.00;;
3131;SDS011;62090;52.330;9.104;2024-03-06T13:21:12;47.10;;;21.50;;
3131;SDS011;62090;52.330;9.104;2024-03-06T13:23:42;36.23;;;20.30;;
3131;SDS011;62090;52.330;9.104;2024-03-06T13:26:13;35.50;;;19.77;;
3131;SDS011;62090;52.330;9.104;2024-03-06T13:28:45;40.57;;;21.93;;
3131;SDS011;62090;52.330;9.104;2024-03-06T13:31:15;34.77;;;22.00;;
3131;SDS011;62090;52.330;9.104;2024-03-06T13:33:48;39.27;;;22.63;;
3131;SDS011;62090;52.330;9.104;2024-03-06T13:36:20;35.27;;;20.80;;
3131;SDS011;62090;52.330;9.104;2024-03-06T13:38:50;41.10;;;23.00;;
3131;SDS011;62090;52.330;9.104;2024-03-06T13:41:20;39.40;;;22.57;;
3131;SDS011;62090;52.330;9.104;2024-03-06T13:43:54;38.93;;;21.23;;
3131;SDS011;62090;52.330;9.104;2024-03-06T13:46:25;32.20;;;18.90;;
3131;SDS011;62090;52.330;9.104;2024-03-06T13:48:57;38.10;;;22.13;;
3131;SDS011;62090;52.330;9.104;2024-03-06T13:51:27;34.57;;;22.60;;
3131;SDS011;62090;52.330;9.104;2024-03-06T13:53:57;43.40;;;21.23;;
3131;SDS011;62090;52.330;9.104;2024-03-06T13:56:27;36.90;;;21.53;;
3131;SDS011;62090;52.330;9.104;2024-03-06T13:58:58;39.93;;;23.17;;
3131;SDS011;62090;52.330;9.104;2024-03-06T14:01:29;38.30;;;20.83;;
3131;SDS011;62090;52.330;9.104;2024-03-06T14:04:02;45.20;;;21.80;;
3131;SDS011;62090;52.330;9.104;2024-03-06T14:06:32;36.40;;;19.83;;
3131;SDS011;62090;52.330;9.104;2024-03-06T14:09:02;47.77;;;21.87;;
3131;SDS011;62090;52.330;9.104;2024-03-06T14:11:34;38.60;;;22.80;;
3131;SDS011;62090;52.330;9.104;2024-03-06T14:14:05;42.30;;;20.87;;
3131;SDS011;62090;52.330;9.104;2024-03-06T14:16:35;35.27;;;22.67;;
3131;SDS011;62090;52.330;9.104;2024-03-06T14:19:08;34.77;;;20.03;;
3131;SDS011;62090;52.330;9.104;2024-03-06T14:21:38;42.93;;;21.03;;
3131;SDS011;62090;52.330;9.104;2024-03-06T14:24:08;34.80;;;21.17;;
3131;SDS011;62090;52.330;9.104;2024-03-06T14:26:39;40.73;;;23.40;;
3131;SDS011;62090;52.330;9.104;2024-03-06T14:29:09;45.27;;;25.10;;
3131;SDS011;62090;52.330;9.104;2024-03-06T14:31:39;42.73;;;21.40;;
3131;SDS011;62090;52.330;9.104;2024-03-06T14:34:12;57.60;;;21.70;;
3131;SDS011;62090;52.330;9.104;2024-03-06T14:36:42;34.13;;;20.63;;
3131;SDS011;62090;52.330;9.104;2024-03-06T14:39:12;36.03;;;20.97;;
3131;SDS011;62090;52.330;9.104;2024-03-06T14:41:43;36.90;;;21.27;;
3131;SDS011;62090;52.330;9.104;2024-03-06T14:44:13;39.40;;;20.67;;
3131;SDS011;62090;52.330;9.104;2024-03-06T14:46:44;40.77;;;21.67;;
3131;SDS011;62090;52.330;9.104;2024-03-06T14:49:16;41.37;;;20.63;;
3131;SDS011;62090;52.330;9.104;2024-03-06T14:51:46;37.60;;;22.10;;
3131;SDS011;62090;52.330;9.104;2024-03-06T14:54:16;39.00;;;21.57;;
3131;SDS011;62090;52.330;9.104;2024-03-06T14:56:46;37.53;;;19.97;;
3131;SDS011;62090;52.330;9.104;2024-03-06T14:59:17;44.83;;;22.30;;
3131;SDS011;62090;52.330;9.104;2024-03-06T15:01:47;38.77;;;21.07;;
3131;SDS011;62090;52.330;9.104;2024-03-06T15:04:20;34.97;;;19.73;;